Aérodrome :
LOGIN :

S'inscrire | Disclaimer

   EN    FR    IT 

 










Légende :    VFR   VFR Marginal   IFR   IFR Intensif   IFR Très Intensif
Visi : 
Plafond : 
>= 8 km
>= 3000ft
5 à 8 km
1000 à 3000 ft
1500m à 5 km
500 à 1000 ft
800 à 1500m
200 à 500 ft
< 800m
< 200 ft
Symboles :   Orages  Brouillard  Fortes neiges  Fortes précipitations  Vent > 20 kt
SIGMETs :   Divers  Orages  Givrage  Turbulence  Onde Orograph.  Cendres Volcan.







- Altitude de l'aérodrome : 313 ft
- Code IATA : LEH
- Voir les cartes d'approche


LFOH - Le Havre Octeville

DERNIER METAR :
  • 122130Z AUTO 19011KT 160V220 CAVOK 11/09 Q1017

METARs EXPIRÉS :
  • 122100Z AUTO 19012KT 150V220 CAVOK 12/09 Q1017
  • 122030Z AUTO 19010KT 160V220 CAVOK 12/09 Q1016
  • 122000Z AUTO 19011KT CAVOK 12/09 Q1016 NOSIG
  • 121930Z AUTO 18011KT CAVOK 12/09 Q1016 NOSIG
  • 121900Z AUTO 18010KT 150V210 CAVOK 12/09 Q1016 NOSIG

TAF TAF LFOH
Valide du 12 à 12h jusqu'au 13 à 12h UTC


121100Z 1212/1312 19012KT 9999 SCT015 SCT030
TEMPO 1212/1218 SHRA BKN013 SCT020TCU
TEMPO 1303/1308 22015G25KT 3000 SHRA BKN007 BKN020CB
ATIS : +33 2 35 54 64 93
Pas de NOTAMs connus pour ce terrain.
1 SIGMET publié pour la FIR Paris (LFFF) :
 
Givrage fort
LFFF SIGMET 1 VALID 122100/122300 LFPW
LFFF PARIS FIR/UIR SEV ICE OBS AT 2100Z WI N4830 E00415 - N4800 E00445 - N4645 E00245 - N4715 E00215 - N4830 E00415 FL150/210 MOV NE 15KT NC=



MET'MAP, la Météo Aéronautique d'un coup d'oeil ! - Copyright ORBIFLY Décembre 2007 - Disclaimer

ORBIFLY MET'MAP TEAM :

Programmation & Développement : Alexandra Zaïnal
Conception & Développement : Baudouin d'Aumeries
Co-Programmation & Développement : Marc-Olivier Méhu
Soutien technique & logistique : Manuel Goepfert

Contact : metmap@orbifly.com




SOURCES & CREDITS :

   NOAA